createdAt,value
2022-12-09T00:00:58.539Z,3.41
2022-12-09T00:03:43.860Z,3.40
2022-12-09T00:06:34.691Z,3.26
2022-12-09T00:09:13.793Z,3.18
2022-12-09T00:12:05.782Z,3.17
2022-12-09T00:14:44.360Z,3.15
2022-12-09T00:17:26.584Z,3.12
2022-12-09T00:20:06.857Z,3.16
2022-12-09T00:22:48.864Z,3.10
2022-12-09T00:25:42.902Z,3.09
2022-12-09T00:28:21.852Z,3.09
2022-12-09T00:31:17.033Z,3.11
2022-12-09T00:33:57.020Z,3.07
2022-12-09T00:36:41.941Z,3.02
2022-12-09T00:39:27.878Z,3.12
2022-12-09T00:42:02.714Z,3.14
2022-12-09T00:44:50.485Z,3.16
2022-12-09T00:47:28.416Z,3.23
2022-12-09T00:50:17.977Z,3.25
2022-12-09T00:52:57.417Z,3.33
2022-12-09T00:55:36.622Z,3.25
2022-12-09T00:58:17.640Z,3.21
2022-12-09T01:00:59.905Z,3.24
2022-12-09T01:03:38.540Z,3.25
2022-12-09T01:06:34.273Z,3.24
2022-12-09T01:09:18.316Z,3.20
2022-12-09T01:12:03.075Z,3.15
2022-12-09T01:14:49.129Z,3.18
2022-12-09T01:17:29.585Z,3.30
2022-12-09T01:20:11.322Z,3.17
2022-12-09T01:22:52.609Z,3.17
2022-12-09T01:25:42.543Z,3.23
2022-12-09T01:28:34.761Z,3.18
2022-12-09T01:31:28.151Z,3.19
2022-12-09T01:34:19.363Z,3.10
2022-12-09T01:37:13.201Z,3.20
2022-12-09T01:39:59.455Z,3.20
2022-12-09T01:42:58.094Z,3.12
2022-12-09T01:45:58.169Z,3.10
2022-12-09T01:48:47.816Z,3.30
2022-12-09T01:51:26.188Z,3.26
2022-12-09T01:54:09.925Z,3.22
2022-12-09T01:56:52.455Z,3.19
2022-12-09T01:59:45.519Z,3.25
2022-12-09T02:02:28.215Z,3.25
2022-12-09T02:05:12.060Z,3.29
2022-12-09T02:07:53.168Z,3.35
2022-12-09T02:10:41.994Z,3.29
2022-12-09T02:13:59.242Z,3.23
2022-12-09T02:17:05.914Z,3.22
2022-12-09T02:20:01.878Z,3.25
2022-12-09T02:22:53.325Z,3.22
2022-12-09T02:25:41.764Z,3.19
2022-12-09T02:28:45.244Z,3.17
2022-12-09T02:31:50.276Z,3.18
2022-12-09T02:34:40.069Z,3.18
2022-12-09T02:37:42.719Z,3.15
2022-12-09T02:40:34.692Z,3.16
2022-12-09T02:43:22.884Z,3.20
2022-12-09T02:46:17.494Z,3.12
2022-12-09T02:49:04.869Z,3.22
2022-12-09T02:52:03.676Z,3.20
2022-12-09T02:54:47.662Z,3.22
2022-12-09T02:57:31.902Z,3.22
2022-12-09T03:00:15.742Z,3.29
2022-12-09T03:02:58.612Z,3.28
2022-12-09T03:05:52.659Z,3.35
2022-12-09T03:08:56.770Z,3.34
2022-12-09T03:11:40.649Z,3.32
2022-12-09T03:14:44.051Z,3.33
2022-12-09T03:17:29.013Z,3.29
2022-12-09T03:20:21.456Z,3.31
2022-12-09T03:23:06.501Z,3.29
2022-12-09T03:25:53.171Z,3.29
2022-12-09T03:28:36.157Z,3.25
2022-12-09T03:31:22.319Z,3.28
2022-12-09T03:34:09.732Z,3.28
2022-12-09T03:36:54.485Z,3.22
2022-12-09T03:39:44.486Z,3.33
2022-12-09T03:42:34.194Z,3.28
2022-12-09T03:45:18.996Z,3.40
2022-12-09T03:48:02.350Z,3.41
2022-12-09T03:50:40.738Z,3.41
2022-12-09T03:53:29.176Z,3.44
2022-12-09T03:56:27.175Z,3.31
2022-12-09T03:59:08.847Z,3.27
2022-12-09T04:01:46.490Z,3.34
2022-12-09T04:04:31.588Z,3.46
2022-12-09T04:07:17.585Z,3.39
2022-12-09T04:10:08.254Z,3.26
2022-12-09T04:12:55.889Z,3.27
2022-12-09T04:15:37.513Z,3.28
2022-12-09T04:18:21.688Z,3.21
2022-12-09T04:21:00.503Z,3.18
2022-12-09T04:23:50.370Z,3.19
2022-12-09T04:26:36.237Z,3.17
2022-12-09T04:29:25.229Z,3.44
2022-12-09T04:32:10.585Z,3.42
2022-12-09T04:34:52.473Z,3.28
2022-12-09T04:37:34.887Z,3.36
2022-12-09T04:40:30.261Z,3.30
2022-12-09T04:43:22.393Z,3.24
2022-12-09T04:46:20.536Z,3.22
2022-12-09T04:49:14.759Z,3.15
2022-12-09T04:52:03.121Z,3.24
2022-12-09T04:54:50.925Z,3.24
2022-12-09T04:57:33.208Z,3.31
2022-12-09T05:00:14.355Z,3.28
2022-12-09T05:02:58.383Z,3.21
2022-12-09T05:05:43.917Z,3.33
2022-12-09T05:08:31.810Z,3.25
2022-12-09T05:11:24.988Z,3.14
2022-12-09T05:14:03.793Z,3.26
2022-12-09T05:16:44.823Z,3.24
2022-12-09T05:19:25.974Z,3.26
2022-12-09T05:22:08.564Z,3.33
2022-12-09T05:24:50.312Z,3.26
2022-12-09T05:27:31.867Z,3.23
2022-12-09T05:30:16.362Z,3.30
2022-12-09T05:33:06.061Z,3.33
2022-12-09T05:35:55.736Z,3.19
2022-12-09T05:38:37.615Z,3.24
2022-12-09T05:41:17.821Z,3.35
2022-12-09T05:44:05.143Z,3.21
2022-12-09T05:46:54.257Z,3.20
2022-12-09T05:49:39.300Z,3.22
2022-12-09T05:52:23.515Z,3.10
2022-12-09T05:55:09.519Z,3.15
2022-12-09T05:58:02.773Z,3.16
2022-12-09T06:00:50.876Z,3.25
2022-12-09T06:03:37.726Z,3.12
2022-12-09T06:06:28.206Z,2.95
2022-12-09T06:09:12.365Z,2.93
2022-12-09T06:12:01.849Z,3.00
2022-12-09T06:14:38.135Z,3.03
2022-12-09T06:17:19.522Z,3.08
2022-12-09T06:20:01.133Z,3.06
2022-12-09T06:22:50.244Z,3.11
2022-12-09T06:25:33.915Z,3.07
2022-12-09T06:28:11.947Z,3.02
2022-12-09T06:30:53.966Z,3.07
2022-12-09T06:33:58.300Z,2.95
2022-12-09T06:36:55.438Z,3.08
2022-12-09T06:39:45.517Z,3.02
2022-12-09T06:42:28.914Z,3.09
2022-12-09T06:45:16.034Z,3.08
2022-12-09T06:47:58.064Z,2.99
2022-12-09T06:50:40.397Z,3.03
2022-12-09T06:53:25.327Z,3.14
2022-12-09T06:56:11.815Z,3.15
2022-12-09T06:59:05.991Z,3.03
2022-12-09T07:01:54.383Z,2.99
2022-12-09T07:04:36.584Z,3.00
2022-12-09T07:07:21.089Z,2.91
2022-12-09T07:10:05.007Z,3.02
2022-12-09T07:12:46.406Z,3.14
2022-12-09T07:15:33.983Z,3.07
2022-12-09T07:18:25.185Z,3.08
2022-12-09T07:21:16.290Z,3.12
2022-12-09T07:23:57.777Z,3.11
2022-12-09T07:26:42.063Z,3.08
2022-12-09T07:29:27.682Z,3.07
2022-12-09T07:32:11.765Z,3.05
2022-12-09T07:34:55.740Z,3.24
2022-12-09T07:37:51.123Z,3.31
2022-12-09T07:40:33.541Z,3.24
2022-12-09T07:43:18.740Z,3.33
2022-12-09T07:46:05.991Z,3.18
2022-12-09T07:48:51.202Z,3.29
2022-12-09T07:51:37.035Z,3.28
2022-12-09T07:54:31.961Z,3.23
2022-12-09T07:57:18.411Z,3.11
2022-12-09T08:00:00.643Z,3.21
2022-12-09T08:02:47.158Z,3.18
2022-12-09T08:05:32.809Z,3.26
2022-12-09T08:08:21.414Z,3.28
2022-12-09T08:11:28.620Z,3.48
2022-12-09T08:14:12.505Z,3.46
2022-12-09T08:16:56.649Z,3.48
2022-12-09T08:19:55.765Z,3.52
2022-12-09T08:22:37.727Z,3.58
2022-12-09T08:25:27.113Z,3.63
2022-12-09T08:28:18.836Z,3.70
2022-12-09T08:31:03.087Z,3.88
2022-12-09T08:33:52.404Z,3.79
2022-12-09T08:36:36.980Z,3.75
2022-12-09T08:39:22.740Z,3.86
2022-12-09T08:42:04.948Z,3.96
2022-12-09T08:44:55.836Z,3.85
2022-12-09T08:47:39.523Z,3.92
2022-12-09T08:50:29.743Z,3.88
2022-12-09T08:53:11.967Z,4.05
2022-12-09T08:56:12.905Z,4.01
2022-12-09T08:58:58.016Z,4.01
2022-12-09T09:01:44.808Z,3.96
2022-12-09T09:04:32.819Z,3.92
2022-12-09T09:07:00.917Z,3.81
2022-12-09T09:09:53.190Z,3.96
2022-12-09T09:12:43.511Z,3.95
2022-12-09T09:15:25.781Z,3.83
2022-12-09T09:18:14.350Z,3.77
2022-12-09T09:21:02.581Z,3.86
2022-12-09T09:23:53.332Z,3.86
2022-12-09T09:26:43.377Z,3.77
2022-12-09T09:29:31.817Z,3.92
2022-12-09T09:32:13.400Z,3.78
2022-12-09T09:35:10.268Z,3.72
2022-12-09T09:38:00.775Z,3.80
2022-12-09T09:41:04.366Z,3.96
2022-12-09T09:43:59.996Z,3.80
2022-12-09T09:46:47.953Z,3.77
2022-12-09T09:49:40.819Z,3.91
2022-12-09T09:52:38.246Z,3.78
2022-12-09T09:55:57.498Z,3.98
2022-12-09T09:58:42.759Z,3.95
2022-12-09T10:01:28.693Z,3.94
2022-12-09T10:04:19.316Z,3.89
2022-12-09T10:07:33.312Z,4.04
2022-12-09T10:10:38.492Z,3.93
2022-12-09T10:14:03.045Z,3.94
2022-12-09T10:36:12.382Z,4.34
2022-12-09T10:38:48.784Z,4.27
2022-12-09T10:42:04.045Z,4.19
2022-12-09T10:44:45.149Z,4.23
2022-12-09T10:47:54.622Z,4.12
2022-12-09T10:50:50.152Z,4.17
2022-12-09T10:53:33.256Z,3.97
2022-12-09T10:56:42.505Z,4.16
2022-12-09T10:59:36.771Z,4.18
2022-12-09T11:02:28.796Z,4.09
2022-12-09T11:08:45.440Z,4.10
2022-12-09T11:11:19.890Z,4.06
2022-12-09T11:14:04.939Z,4.25
2022-12-09T11:17:14.459Z,4.36
2022-12-09T11:20:11.578Z,4.31
2022-12-09T11:23:25.683Z,4.38
2022-12-09T11:26:24.540Z,4.52
2022-12-09T11:29:39.675Z,4.60
2022-12-09T11:32:18.793Z,4.50
2022-12-09T11:35:11.389Z,4.52
2022-12-09T11:38:01.995Z,4.45
2022-12-09T11:41:03.511Z,4.56
2022-12-09T11:43:57.556Z,4.48
2022-12-09T11:46:44.227Z,4.68
2022-12-09T11:49:33.219Z,4.63
2022-12-09T11:52:31.881Z,4.54
2022-12-09T11:55:09.912Z,4.51
2022-12-09T11:58:14.869Z,4.65
2022-12-09T12:01:03.615Z,4.57
2022-12-09T12:03:50.440Z,4.50
2022-12-09T12:07:00.536Z,4.39
2022-12-09T12:09:52.401Z,4.33
2022-12-09T12:12:49.482Z,4.33
2022-12-09T12:15:39.287Z,4.12
2022-12-09T12:18:29.727Z,4.17
2022-12-09T12:21:31.879Z,4.35
2022-12-09T12:24:25.619Z,4.50
2022-12-09T12:27:49.475Z,4.30
2022-12-09T12:30:50.317Z,4.23
2022-12-09T12:34:23.518Z,4.29
2022-12-09T12:37:27.703Z,4.35
2022-12-09T12:40:46.296Z,4.29
2022-12-09T12:44:46.808Z,4.28
2022-12-09T12:48:27.076Z,4.33
2022-12-09T12:51:25.171Z,4.48
2022-12-09T12:54:18.793Z,4.49
2022-12-09T12:57:14.395Z,4.35
2022-12-09T13:00:23.912Z,4.38
2022-12-09T13:03:22.056Z,4.45
2022-12-09T13:06:10.984Z,4.45
2022-12-09T13:09:02.683Z,4.50
2022-12-09T13:12:17.815Z,4.48
2022-12-09T13:18:14.914Z,4.50
2022-12-09T13:21:06.417Z,4.61
2022-12-09T13:24:21.720Z,4.48
2022-12-09T13:27:21.658Z,4.49
2022-12-09T13:30:06.546Z,4.45
2022-12-09T13:33:02.779Z,4.45
2022-12-09T13:36:17.256Z,4.43
2022-12-09T13:39:03.011Z,4.61
2022-12-09T13:42:14.238Z,4.61
2022-12-09T13:45:25.645Z,4.48
2022-12-09T13:48:14.817Z,4.53
2022-12-09T13:51:03.404Z,4.44
2022-12-09T13:53:51.826Z,4.53
2022-12-09T13:56:31.227Z,4.56
2022-12-09T13:59:40.840Z,4.53
2022-12-09T14:02:35.992Z,4.49
2022-12-09T14:05:40.467Z,4.38
2022-12-09T14:08:30.591Z,4.47
2022-12-09T14:11:38.056Z,4.48
2022-12-09T14:14:27.955Z,4.40
2022-12-09T14:17:09.493Z,4.36
2022-12-09T14:20:31.190Z,4.36
2022-12-09T14:23:29.746Z,4.50
2022-12-09T14:26:13.749Z,4.51
2022-12-09T14:29:07.377Z,4.49
2022-12-09T14:32:31.063Z,4.39
2022-12-09T14:35:18.888Z,4.51
2022-12-09T14:39:08.025Z,4.42
2022-12-09T14:42:07.455Z,4.39
2022-12-09T14:44:55.127Z,4.37
2022-12-09T14:48:01.927Z,4.53
2022-12-09T14:50:52.785Z,4.47
2022-12-09T14:53:37.421Z,4.49
2022-12-09T14:56:13.235Z,4.36
2022-12-09T14:58:59.736Z,4.32
2022-12-09T15:02:17.376Z,4.39
2022-12-09T15:05:02.392Z,4.39
2022-12-09T15:08:00.207Z,4.34
2022-12-09T15:10:50.529Z,4.42
2022-12-09T15:13:45.345Z,4.42
2022-12-09T15:16:28.452Z,4.53
2022-12-09T15:22:09.061Z,4.43
2022-12-09T15:27:50.878Z,4.50
2022-12-09T15:30:42.598Z,4.44
2022-12-09T15:33:35.204Z,4.42
2022-12-09T15:36:25.438Z,4.47
2022-12-09T15:39:19.959Z,4.60
2022-12-09T15:42:10.943Z,4.47
2022-12-09T15:45:10.442Z,4.61
2022-12-09T15:47:46.265Z,4.53
2022-12-09T15:50:45.549Z,4.54
2022-12-09T15:53:53.793Z,4.51
2022-12-09T15:56:54.966Z,4.34
2022-12-09T16:00:07.404Z,4.50
2022-12-09T16:02:59.359Z,4.60
2022-12-09T16:05:43.970Z,4.64
2022-12-09T16:08:31.608Z,4.45
2022-12-09T16:11:44.247Z,4.51
2022-12-09T16:14:49.426Z,4.52
2022-12-09T16:18:07.854Z,4.45
2022-12-09T16:21:03.410Z,4.54
2022-12-09T16:23:39.415Z,4.66
2022-12-09T16:26:34.372Z,4.66
2022-12-09T16:29:26.611Z,4.65
2022-12-09T16:32:19.253Z,4.61
2022-12-09T16:35:53.572Z,4.43
2022-12-09T16:38:44.382Z,4.51
2022-12-09T16:41:25.911Z,4.67
2022-12-09T16:44:37.540Z,4.78
2022-12-09T16:47:27.617Z,4.61
2022-12-09T16:53:19.712Z,4.45
2022-12-09T16:56:26.928Z,4.67
2022-12-09T16:59:06.409Z,4.59
2022-12-09T17:01:47.945Z,4.42
2022-12-09T17:04:38.751Z,4.52
2022-12-09T17:07:23.537Z,4.50
2022-12-09T17:10:16.575Z,4.54
2022-12-09T17:12:58.761Z,4.43
2022-12-09T17:15:36.430Z,4.52
2022-12-09T17:18:30.205Z,4.37
2022-12-09T17:21:36.890Z,4.58
2022-12-09T17:24:31.442Z,4.49
2022-12-09T17:27:13.554Z,4.46
2022-12-09T17:29:54.836Z,4.61
2022-12-09T17:32:33.417Z,4.71
2022-12-09T17:35:20.445Z,4.67
2022-12-09T17:38:29.455Z,4.71
2022-12-09T17:41:21.046Z,4.74
2022-12-09T17:44:10.417Z,4.66
2022-12-09T17:46:56.556Z,4.66
2022-12-09T17:49:48.232Z,4.74
2022-12-09T17:52:42.219Z,4.79
2022-12-09T17:55:36.496Z,4.57
2022-12-09T17:58:27.512Z,4.64
2022-12-09T18:01:16.504Z,4.76
2022-12-09T18:04:15.844Z,4.75
2022-12-09T18:07:05.851Z,4.72
2022-12-09T18:09:54.381Z,4.76
2022-12-09T18:12:52.143Z,4.82
2022-12-09T18:15:32.822Z,4.79
2022-12-09T18:18:25.690Z,4.74
2022-12-09T18:21:15.326Z,4.79
2022-12-09T18:23:59.574Z,4.74
2022-12-09T18:26:47.769Z,4.84
2022-12-09T18:29:27.015Z,4.68
2022-12-09T18:32:04.395Z,4.66
2022-12-09T18:34:48.082Z,4.69
2022-12-09T18:37:32.671Z,4.81
2022-12-09T18:40:21.426Z,4.79
2022-12-09T18:42:52.559Z,4.84
2022-12-09T18:45:46.319Z,4.90
2022-12-09T18:48:28.163Z,5.03
2022-12-09T18:51:04.315Z,5.00
2022-12-09T18:53:45.570Z,5.03
2022-12-09T18:56:26.423Z,5.08
2022-12-09T18:59:12.438Z,5.18
2022-12-09T19:02:05.794Z,5.20
2022-12-09T19:04:55.046Z,5.31
2022-12-09T19:07:47.400Z,5.32
2022-12-09T19:10:33.815Z,5.32
2022-12-09T19:13:28.794Z,5.35
2022-12-09T19:16:01.014Z,5.20
2022-12-09T19:18:56.399Z,5.47
2022-12-09T19:21:47.303Z,5.15
2022-12-09T19:24:38.442Z,5.26
2022-12-09T19:27:40.032Z,5.27
2022-12-09T19:30:23.400Z,5.23
2022-12-09T19:33:12.957Z,5.31
2022-12-09T19:35:49.010Z,5.29
2022-12-09T19:38:39.945Z,5.29
2022-12-09T19:41:23.350Z,5.33
2022-12-09T19:44:08.766Z,5.29
2022-12-09T19:47:00.597Z,5.25
2022-12-09T19:49:33.529Z,5.26
2022-12-09T19:52:19.454Z,5.28
2022-12-09T19:55:00.643Z,5.36
2022-12-09T19:57:43.853Z,5.59
2022-12-09T20:00:30.139Z,5.61
2022-12-09T20:03:20.505Z,5.63
2022-12-09T20:06:01.551Z,5.64
2022-12-09T20:08:48.037Z,5.58
2022-12-09T20:11:41.172Z,5.66
2022-12-09T20:14:25.188Z,5.56
2022-12-09T20:17:15.164Z,5.59
2022-12-09T20:20:09.766Z,5.57
2022-12-09T20:22:54.989Z,5.67
2022-12-09T20:25:28.715Z,5.70
2022-12-09T20:28:08.789Z,5.73
2022-12-09T20:30:59.359Z,5.71
2022-12-09T20:33:46.423Z,5.85
2022-12-09T20:36:28.889Z,5.78
2022-12-09T20:39:35.524Z,5.71
2022-12-09T20:42:19.251Z,5.75
2022-12-09T20:45:00.033Z,5.82
2022-12-09T20:47:39.392Z,5.83
2022-12-09T20:50:25.714Z,5.90
2022-12-09T20:53:21.657Z,5.78
2022-12-09T20:56:12.346Z,5.80
2022-12-09T20:59:12.903Z,5.76
2022-12-09T21:02:06.409Z,5.77
2022-12-09T21:05:02.034Z,5.76
2022-12-09T21:07:49.125Z,5.74
2022-12-09T21:10:33.449Z,5.60
2022-12-09T21:13:18.331Z,5.68
2022-12-09T21:15:56.288Z,5.84
2022-12-09T21:18:44.126Z,5.88
2022-12-09T21:21:31.093Z,5.86
2022-12-09T21:24:14.354Z,5.96
2022-12-09T21:26:56.248Z,5.97
2022-12-09T21:29:50.529Z,5.94
2022-12-09T21:32:40.418Z,5.88
2022-12-09T21:35:32.324Z,5.99
2022-12-09T21:38:28.306Z,5.98
2022-12-09T21:41:24.738Z,6.04
2022-12-09T21:44:00.113Z,6.04
2022-12-09T21:46:43.939Z,5.98
2022-12-09T21:49:16.716Z,6.01
2022-12-09T21:52:13.480Z,5.98
2022-12-09T21:54:58.399Z,5.76
2022-12-09T21:57:40.582Z,5.79
2022-12-09T22:00:30.277Z,5.79
2022-12-09T22:03:12.700Z,5.80
2022-12-09T22:06:06.427Z,5.69
2022-12-09T22:08:54.319Z,5.66
2022-12-09T22:11:41.100Z,5.68
2022-12-09T22:14:30.704Z,5.57
2022-12-09T22:17:18.543Z,5.72
2022-12-09T22:20:49.082Z,5.72
2022-12-09T22:23:21.147Z,5.76
2022-12-09T22:26:07.144Z,5.75
2022-12-09T22:28:47.239Z,5.80
2022-12-09T22:31:43.423Z,5.77
2022-12-09T22:34:14.405Z,5.77
2022-12-09T22:36:57.237Z,5.64
2022-12-09T22:39:49.377Z,5.64
2022-12-09T22:42:33.113Z,5.55
2022-12-09T22:45:36.043Z,5.64
2022-12-09T22:48:26.286Z,5.56
2022-12-09T22:51:21.023Z,5.61
2022-12-09T22:54:00.388Z,5.55
2022-12-09T22:56:51.668Z,5.49
2022-12-09T22:59:42.679Z,5.59
2022-12-09T23:02:23.047Z,5.71
2022-12-09T23:05:28.039Z,5.76
2022-12-09T23:08:15.444Z,5.88
2022-12-09T23:11:07.461Z,5.82
2022-12-09T23:13:56.052Z,5.84
2022-12-09T23:16:47.102Z,5.82
2022-12-09T23:19:45.315Z,5.80
2022-12-09T23:22:37.784Z,5.84
2022-12-09T23:25:18.935Z,6.00
2022-12-09T23:28:05.495Z,5.95
2022-12-09T23:30:49.432Z,5.94
2022-12-09T23:33:31.037Z,5.96
2022-12-09T23:36:37.428Z,5.95
2022-12-09T23:39:20.375Z,5.88
2022-12-09T23:42:08.809Z,5.90
2022-12-09T23:44:58.483Z,5.97
2022-12-09T23:47:41.441Z,5.97
2022-12-09T23:50:29.714Z,5.95
2022-12-09T23:53:16.333Z,5.97
2022-12-09T23:56:06.403Z,6.01
2022-12-09T23:58:47.509Z,5.74
